Richard Barnes

Recruteur en chef - Bradford City
3 Avr 2027
Samedi
Processus

Personnalité

Adaptabilité (9) Ambition (8) Controverse (12) Loyauté (7) Pression (16) Professionnalisme (7) Sportivité (3) Tempérament (1)

Profil

Style d'entraînement Démocratique
Diplôme Continental A
Détermination 4
Gestion des joueurs 7
Motivation 10
Discipline 7
Satisfaction professionnelle
100%
Fatigue
0%
Rôle Recruteur en chef
Salaire 71.1K p/s
Contrat 14.03.2029

Performance

Comportement Bon
Efficacité de l'entraînement
28%
Développement des joueurs
20%
Prévention des blessures
25%
Mise en place tactique
30%

Événements récents

A évalué un joueur maintenant
A participé à une réunion de recrutement maintenant
A recommandé une cible de transfert maintenant
A recommandé une cible de transfert 7j
A évalué un joueur 7j
A évalué un joueur 7j
A évalué un joueur 7j
A évalué un joueur 7j

Suivi en cours

168
Joueur Club Statut Capacité Confiance Observé Dernière observation Dernier vote
Louis Appéré Cambridge United Actif 89 / 97 40% 1 01.04.2027 -
Rody Junior Effaghe Aris Actif 116 / 129 40% 1 01.04.2027 -
Johnson Amuzu Berekum Chelsea Actif 79 / 97 40% 1 01.04.2027 -
Mohamed Mallahi Pro Vercelli Actif 108 / 104 40% 2 30.03.2027 -
Migran Ageyan Ufa Actif 94 / 88 40% 1 30.03.2027 -
Vladislav Yakovlev Volga Actif 97 / 82 40% 1 30.03.2027 -
Ekain Orobengoa Real Sociedad Actif 96 / 92 40% 3 29.03.2027 -
Paul Glatzel Swindon Town Actif 103 / 93 40% 1 29.03.2027 -
Alexandr Saplinov Volga Actif 105 / 101 40% 3 28.03.2027 -
Guillermo Bassi Lokomotiv Plovdiv Actif 94 / 90 40% 2 28.03.2027 -
Samson Olasupo Remo Stars Actif 106 / 112 40% 1 28.03.2027 -
Matty Stevens AFC Wimbledon Actif 108 / 97 40% 7 27.03.2027 -
Dmitry Tsypchenko Torpedo Moscow Actif 102 / 112 40% 2 27.03.2027 -
Giacomo Zecca Torres Actif 110 / 98 40% 1 27.03.2027 -
Lewis McCann Fleetwood Town Actif 104 / 87 40% 2 26.03.2027 -
Leon Sabua Fakel Actif 94 / 105 40% 1 26.03.2027 -
Aaron Drinan Swindon Town Actif 99 / 105 40% 4 24.03.2027 -
Dilan Ortíz Ufa Actif 107 / 101 40% 6 24.03.2027 -
Jacopo Desogus AlbinoLeffe Actif 107 / 94 40% 2 24.03.2027 -
Martin Sekulić Ural Actif 115 / 119 40% 4 22.03.2027 -
Solly Khunyedi Bloemfontein Celtic Actif 87 / 95 40% 4 22.03.2027 -
Mohamed Konaté Akhmat Grozny Actif 115 / 114 40% 3 20.03.2027 -
Mésaque Djú Portimonense Actif 98 / 98 40% 1 20.03.2027 -
Robert Mizo Remo Stars Actif 94 / 87 40% 4 18.03.2027 -
Luca Fabrizi Pianese Actif 105 / 106 40% 2 18.03.2027 -
Alex Morales Swindon Town Actif 100 / 86 40% 1 18.03.2027 -
Kane Drummond Oldham Athletic Actif 91 / 96 40% 3 14.03.2027 -
Sam Nombe Milton Keynes Dons Actif 112 / 123 40% 4 14.03.2027 -
Edarlyn Reyes Arsenal Tula Actif 110 / 101 40% 1 14.03.2027 -
Marcus Browne AFC Wimbledon Actif 115 / 110 40% 2 13.03.2027 -
Jefferson Palacios Ermis Actif 95 / 76 40% 1 13.03.2027 -
Miro Dinamo Makhachkala Actif 115 / 118 40% 1 13.03.2027 -
Mykola Haiduchyk Polissia Actif 108 / 115 40% 2 10.03.2027 -
Gustavo Rigazzi Metalist Actif 86 / 90 40% 1 10.03.2027 -
Yurii Klymchuk Kolos Actif 118 / 116 40% 3 07.03.2027 -
Danyil Alefirenko Chornomorets Actif 107 / 113 40% 3 07.03.2027 -
Ilja Safronov Rotor Actif 103 / 109 40% 6 06.03.2027 -
Simone Ianesi Pianese Actif 108 / 104 40% 2 06.03.2027 -
Rivaldo Ngcobo Free State Stars Actif 111 / 117 40% 9 05.03.2027 -
Andrea Mattioli Arzignano Actif 106 / 104 40% 1 05.03.2027 -
Seb Palmer-Houlden Gillingham Actif 88 / 89 40% 2 04.03.2027 -
Jerome Karelse Golden Arrows Actif 99 / 114 40% 2 03.03.2027 -
Brandon Hanlan Doncaster Rovers Actif 96 / 89 40% 4 03.03.2027 -
Kamran Aliev SKA Khabarovsk Actif 97 / 101 40% 2 02.03.2027 -
Andrii Khoma Chornomorets Actif 103 / 102 40% 3 02.03.2027 -
Piotr Samiec-Talar Slask Actif 104 / 112 40% 3 01.03.2027 -
Ihor Krasnopir Polissia Actif 124 / 119 40% 1 01.03.2027 -
Tyrese Shade Burton Albion Actif 98 / 86 40% 1 28.02.2027 -
Danila Shilov Dinamo Stavropol Actif 90 / 85 40% 1 25.02.2027 -
Kostiantyn Bychek Kudrivka Actif 103 / 93 40% 1 24.02.2027 -
Milan Vidakov Radnicki 1923 Actif 102 / 97 40% 1 23.02.2027 -
Oleh Kozhushko Bukovyna Actif 113 / 106 40% 1 22.02.2027 -
Jonathan Okoronkwo Torpedo Moscow Actif 98 / 112 40% 1 20.02.2027 -
Naledi Hlongwane Victoria United Actif 97 / 107 40% 1 19.02.2027 -
Denys Ustymenko Obolon Actif 103 / 98 40% 2 16.02.2027 -
Vladyslav Vakula Obolon Actif 102 / 90 40% 1 15.02.2027 -
Sibusiso Tshabalala Polokwane City Actif 75 / 101 40% 1 13.02.2027 -
Daniil Kondrakov KDV Tomsk Actif 89 / 83 40% 2 11.02.2027 -
Midana Cassamá Portimonense Actif 98 / 108 40% 2 11.02.2027 -
Georg Stojanovski Spartak 1918 Actif 90 / 97 40% 1 08.02.2027 -
Vinicius Baiano Naxxar Lions Actif 97 / 100 40% 1 05.02.2027 -
Dramane Kamagaté USM Alger Actif 115 / 123 40% 1 05.02.2027 -
Luther Zwane Platinum Stars Actif 92 / 101 40% 1 04.02.2027 -
Chico Banza Zamalek Actif 108 / 115 40% 2 03.02.2027 -
Celso Sidney Cherno More Actif 105 / 102 40% 2 02.02.2027 -
Fábio Tavares Newport County Actif 98 / 108 40% 1 02.02.2027 -
Anthony Lokosa Tarxien Rainbows Actif 94 / 99 40% 2 26.01.2027 -
Makabi Lilepo Kaizer Chiefs Actif 102 / 103 40% 1 26.01.2027 -
Charlie Whitaker Tranmere Rovers Actif 105 / 112 62% 1 25.01.2027 Approuver
Daniil Agureev Amkar Actif 83 / 91 40% 1 22.01.2027 -
Alessio Nepi Perugia Actif 114 / 115 40% 1 21.01.2027 -
Carlos Paraco Metalist Actif 119 / 120 40% 4 19.01.2027 -
Kirill Bogdanets Volna Actif 85 / 79 40% 1 19.01.2027 -
Ardit Tahiri Kolos Actif 109 / 105 40% 2 18.01.2027 -
Samuel Amoah Liberty Professionals Actif 99 / 104 40% 1 31.12.2026 -
Jorge Padilla Cherno More Actif 108 / 96 40% 1 30.12.2026 -
Luca Martínez Dupuy Godoy Cruz Refusé 124 / 108 40% 2 28.12.2026 Plus d'infos
Papa Ndiaga Yade Oleksandriya Refusé 105 / 94 40% 1 21.12.2026 Plus d'infos
Fran Brodić MFK Ruzomberok Refusé 118 / 115 40% 1 20.12.2026 Plus d'infos
Alexandr Dolgov Amkar Actif 102 / 94 40% 3 18.12.2026 -
Duván Riascos Jihlava Actif 97 / 97 40% 1 18.12.2026 -
Sebastian Soto ES Ben Aknoun Actif 106 / 84 40% 1 16.12.2026 -
Mahir Abdullayev AZAL Actif 95 / 109 40% 1 13.12.2026 -
Salah Mohsen El Masry Actif 109 / 117 40% 1 11.12.2026 -
James Emo Rangers International Actif 83 / 85 40% 1 11.12.2026 -
Jay-Roy Grot OB Refusé 124 / 128 40% 1 09.12.2026 Plus d'infos
Albek Gongapshev Shinnik Actif 100 / 102 40% 1 08.12.2026 -
Thiago Calone All Boys Refusé 125 / 93 40% 2 07.12.2026 Plus d'infos
Timothy Zechariah Rivers United Actif 101 / 77 40% 1 06.12.2026 -
Beryly Lubala CSKA 1948 Actif 106 / 102 40% 1 05.12.2026 -
Jack Vale Alcione Milano Actif 84 / 97 40% 2 04.12.2026 -
Peter Itodo Metalist Actif 117 / 107 40% 2 04.12.2026 -
Lazar Mijović Cukaricki Actif 100 / 97 40% 2 01.12.2026 -
Jeremy Rafanello Philadelphia Union Actif 113 / 110 40% 3 30.11.2026 -
Suleiman Abdullahi Military Production Actif 89 / 101 40% 2 29.11.2026 -
Marcelo Torres Gimnasia La Plata Actif 127 / 110 40% 3 28.11.2026 -
Ivan Delić Dugopolje Actif 101 / 87 40% 1 27.11.2026 -
Benji Kikanović San Jose Earthquakes Actif 100 / 90 40% 1 27.11.2026 -
Moses Twum Haras El Hodoud Actif 89 / 95 40% 1 26.11.2026 -
Wandile Duba Bidvest Wits Actif 87 / 108 40% 2 20.11.2026 -
Andrija Majdevac Napredak Actif 97 / 96 40% 1 20.11.2026 -
Joel Fameyeh Puskas Akademia Actif 107 / 101 40% 1 17.11.2026 -
Yaroslav Karabin Karpaty Actif 113 / 114 40% 1 16.11.2026 -
CJ Fodrey Austin FC Actif 100 / 90 40% 2 15.11.2026 -
Matěj Pulkrab Teplice Actif 107 / 112 40% 1 13.11.2026 -
Aaron Spetale AGF Actif 128 / 106 40% 2 10.11.2026 -
Facundo Krüger Temperley Actif 125 / 101 40% 1 10.11.2026 -
Lucio Castillo Colegiales Actif 99 / 88 40% 1 09.11.2026 -
Woobens Pacius Nashville SC Actif 89 / 100 40% 1 08.11.2026 -
Matyáš Kozák Teplice Actif 117 / 122 40% 1 07.11.2026 -
Patrick Schmidt Tarxien Rainbows Actif 99 / 102 40% 1 06.11.2026 -
Abubakar Garba Nasarawa United Actif 103 / 111 40% 1 06.11.2026 -
Roald Mitchell New York Red Bulls Actif 91 / 101 40% 2 04.11.2026 -
Enzo Avaro Mitre Actif 113 / 125 40% 2 04.11.2026 -
Alexander Lyng SonderjyskE Actif 101 / 138 40% 1 02.11.2026 -
John Okoye Ebuka Ittihad Actif 127 / 121 40% 1 01.11.2026 -
Alberto Soro Dinamo Bucharest Actif 125 / 106 40% 1 31.10.2026 -
Ismaïl Seydi SonderjyskE Actif 102 / 79 40% 1 29.10.2026 -
Kwame Opoku Asante Kotoko Actif 83 / 96 40% 2 28.10.2026 -
Michalis Kosidis Zaglebie Actif 105 / 109 40% 1 28.10.2026 -
Fabrizio Sartori Independiente Rivadavia Actif 113 / 114 40% 2 24.10.2026 -
Kenji Mboma Dem FC Cincinnati Actif 97 / 106 40% 1 20.10.2026 -
Amos Inusah Wa All Stars Actif 123 / 133 40% 1 20.10.2026 -
Prince Ukachukwu Kano Pillars Actif 82 / 94 40% 1 19.10.2026 -
Patrik Mijić HNK Gorica Actif 107 / 109 40% 1 18.10.2026 -
Chukwuemeka Obioma Abia Warriors Actif 103 / 97 40% 2 17.10.2026 -
Alex Mighten San Diego Football Club Actif 88 / 111 40% 1 15.10.2026 -
Yu Tsukanome Seattle Sounders Actif 89 / 93 40% 1 14.10.2026 -
Maclyn Biokpo Jenewari Rivers United Actif 110 / 102 40% 3 13.10.2026 -
Taylor Calheira Sporting Kansas City Actif 98 / 108 40% 1 10.10.2026 -
Marcus Caldeira Minnesota United FC Actif 105 / 91 40% 1 09.10.2026 -
Victor Mbaoma Tusker Actif 99 / 86 40% 1 09.10.2026 -
Lautaro Gordillo Colegiales Actif 112 / 102 40% 1 08.10.2026 -
Oke Kayode Bendel Insurance Actif 80 / 82 40% 1 07.10.2026 -
Cristian Barros Cerro Actif 118 / 94 40% 1 07.10.2026 -
Daniel Vašulín Zbrojovka Brno Actif 120 / 107 40% 1 06.10.2026 -
Ismail Sarki Niger Tornadoes Actif 99 / 89 40% 2 30.09.2026 -
Juan Cruz Zurbriggen San Telmo Actif 87 / 111 40% 1 30.09.2026 -
Renzo Reynaga Patronato Actif 105 / 113 40% 1 27.09.2026 -
Marcus Vinicius Deportivo Pereira Actif 97 / 128 40% 1 26.09.2026 -
Michael Vadulli Audax Italiano Actif 125 / 102 40% 1 24.09.2026 -
Maicol Ferreira Danubio Actif 105 / 118 40% 2 21.09.2026 -
Shuaibu Ibrahim Wikki Tourists Actif 101 / 79 40% 1 21.09.2026 -
Samuel Anakwe Remo Stars Actif 82 / 115 40% 2 20.09.2026 -
Anthony Scully Admira Wacker Actif 93 / 87 40% 1 20.09.2026 -
Ruyery Blanco Alianza Petrolera Actif 119 / 108 40% 1 19.09.2026 -
Fernando Mimbacas Juventud Actif 94 / 107 40% 2 16.09.2026 -
Ezequiel Almirón Estudiantes Actif 99 / 98 40% 1 15.09.2026 -
Ivo Costantino Danubio Actif 105 / 113 40% 1 15.09.2026 -
Esteban da Silva Racing Actif 100 / 119 40% 1 13.09.2026 -
Ariath Piol Real Salt Lake Actif 99 / 91 40% 1 13.09.2026 -
Ibrahim Aliyu Houston Dynamo Actif 102 / 110 40% 2 11.09.2026 -
Bautista Arricau OB Actif 115 / 87 40% 1 11.09.2026 -
Joseph Atule Barau Actif 92 / 108 40% 1 10.09.2026 -
Jack Lynn San Jose Earthquakes Actif 111 / 118 40% 1 09.09.2026 -
Themba Manyama Ajax Cape Town Actif 99 / 103 40% 1 09.09.2026 -
Jay Rodriguez Wrexham Actif 110 / 95 58% 1 31.08.2026 Approuver
Antoine Griezmann Orlando City Actif 145 / 146 40% 2 30.08.2026 -
Samuel Tetteh Wa All Stars Actif 101 / 115 40% 1 30.08.2026 -
Chukwudi Okoro Nasarawa United Actif 77 / 96 40% 1 28.08.2026 -
Anderson Plata Actif 103 / 129 40% 1 27.08.2026 -
Esteban Obregón Montevideo City Torque Actif 116 / 109 40% 1 27.08.2026 -
Majeed Waris JS Kabylie Actif 125 / 119 40% 1 25.08.2026 -
Justice Figuareido Chippa United Actif 70 / 71 40% 1 23.08.2026 -
Flávio Silva Kaizer Chiefs Actif 87 / 113 40% 1 23.08.2026 -
Robin Lod Chicago Fire Actif 122 / 141 40% 1 22.08.2026 -
Gift Motupa Bloemfontein Celtic Actif 100 / 98 40% 1 20.08.2026 -
Luke Baartman Chippa United Actif 116 / 124 40% 1 19.08.2026 -